createdAt,value
2022-10-25T00:00:23.029Z,97691.78
2022-10-25T00:03:24.648Z,97692.38
2022-10-25T00:06:26.293Z,97701.59
2022-10-25T00:09:27.811Z,97699.06
2022-10-25T00:12:29.349Z,97697.19
2022-10-25T00:15:30.946Z,97701.00
2022-10-25T00:18:32.476Z,97701.06
2022-10-25T00:21:34.043Z,97704.69
2022-10-25T00:24:35.617Z,97705.59
2022-10-25T00:27:37.242Z,97701.66
2022-10-25T00:30:38.852Z,97706.69
2022-10-25T00:33:42.306Z,97704.16
2022-10-25T00:36:43.912Z,97719.63
2022-10-25T00:39:45.861Z,97714.81
2022-10-25T00:42:47.562Z,97714.81
2022-10-25T00:45:49.418Z,97717.63
2022-10-25T00:48:53.073Z,97713.59
2022-10-25T00:51:56.374Z,97723.84
2022-10-25T00:54:57.889Z,97718.84
2022-10-25T00:58:04.402Z,97720.00
2022-10-25T01:01:06.447Z,97719.09
2022-10-25T01:04:09.362Z,97725.59
2022-10-25T01:07:11.017Z,97727.44
2022-10-25T01:10:12.553Z,97738.22
2022-10-25T01:13:14.089Z,97733.03
2022-10-25T01:16:18.393Z,97738.75
2022-10-25T01:19:30.290Z,97743.56
2022-10-25T01:22:54.889Z,97748.81
2022-10-25T01:26:02.447Z,97737.47
2022-10-25T01:29:12.226Z,97736.50
2022-10-25T01:32:16.463Z,97743.56
2022-10-25T01:35:31.156Z,97756.41
2022-10-25T01:38:35.815Z,97752.25
2022-10-25T01:41:46.310Z,97750.72
2022-10-25T01:45:02.946Z,97747.09
2022-10-25T01:48:30.589Z,97746.56
2022-10-25T01:51:34.296Z,97754.72
2022-10-25T01:54:35.933Z,97762.06
2022-10-25T01:57:37.436Z,97757.72
2022-10-25T02:00:51.196Z,97761.34
2022-10-25T02:03:52.755Z,97747.06
2022-10-25T02:07:26.685Z,97763.34
2022-10-25T02:10:28.158Z,97767.91
2022-10-25T02:13:36.701Z,97770.00
2022-10-25T02:17:04.728Z,97777.19
2022-10-25T02:20:06.434Z,97773.53
2022-10-25T02:23:07.959Z,97774.53
2022-10-25T02:26:09.825Z,97784.69
2022-10-25T02:29:11.465Z,97781.63
2022-10-25T02:32:13.079Z,97785.47
2022-10-25T02:35:15.511Z,97781.97
2022-10-25T02:38:17.098Z,97791.47
2022-10-25T02:41:19.231Z,97789.72
2022-10-25T02:44:20.843Z,97789.44
2022-10-25T02:47:22.366Z,97788.19
2022-10-25T02:50:24.001Z,97793.03
2022-10-25T02:53:25.534Z,97789.19
2022-10-25T02:56:27.129Z,97798.50
2022-10-25T02:59:29.781Z,97789.47
2022-10-25T03:02:31.312Z,97787.91
2022-10-25T03:05:32.841Z,97785.34
2022-10-25T03:08:34.653Z,97793.91
2022-10-25T03:11:36.215Z,97797.00
2022-10-25T03:14:37.837Z,97793.72
2022-10-25T03:17:39.374Z,97794.81
2022-10-25T03:20:41.266Z,97801.50
2022-10-25T03:23:42.808Z,97800.72
2022-10-25T03:26:44.362Z,97810.97
2022-10-25T03:29:45.923Z,97804.97
2022-10-25T03:32:47.673Z,97807.25
2022-10-25T03:35:49.885Z,97807.63
2022-10-25T03:38:51.439Z,97816.47
2022-10-25T03:41:52.984Z,97810.69
2022-10-25T03:44:54.574Z,97821.56
2022-10-25T03:47:56.071Z,97806.94
2022-10-25T03:50:57.626Z,97811.06
2022-10-25T03:53:59.186Z,97823.88
2022-10-25T03:57:01.075Z,97819.94
2022-10-25T04:00:02.774Z,97824.06
2022-10-25T04:03:13.271Z,97838.06
2022-10-25T04:06:14.789Z,97837.38
2022-10-25T04:09:16.475Z,97832.47
2022-10-25T04:12:17.997Z,97840.81
2022-10-25T04:15:19.585Z,97843.50
2022-10-25T04:18:21.220Z,97848.19
2022-10-25T04:21:23.264Z,97850.56
2022-10-25T04:24:24.805Z,97851.25
2022-10-25T04:27:26.337Z,97851.91
2022-10-25T04:30:27.870Z,97851.41
2022-10-25T04:33:29.434Z,97845.38
2022-10-25T04:36:31.333Z,97850.88
2022-10-25T04:39:32.870Z,97853.47
2022-10-25T04:42:34.569Z,97854.81
2022-10-25T04:45:36.144Z,97855.41
2022-10-25T04:48:38.256Z,97860.44
2022-10-25T04:51:40.038Z,97862.22
2022-10-25T04:54:41.650Z,97872.88
2022-10-25T04:57:43.333Z,97867.75
2022-10-25T05:00:46.716Z,97880.53
2022-10-25T05:03:49.056Z,97880.00
2022-10-25T05:06:50.569Z,97867.44
2022-10-25T05:09:52.128Z,97884.94
2022-10-25T05:12:54.348Z,97885.47
2022-10-25T05:15:56.529Z,97889.03
2022-10-25T05:18:58.112Z,97883.72
2022-10-25T05:21:59.623Z,97884.22
2022-10-25T05:25:01.132Z,97883.84
2022-10-25T05:28:02.686Z,97878.16
2022-10-25T05:34:17.220Z,97882.03
2022-10-25T05:37:18.765Z,97888.28
2022-10-25T05:40:20.332Z,97889.59
2022-10-25T05:43:21.881Z,97889.50
2022-10-25T05:46:23.646Z,97891.38
2022-10-25T05:49:25.152Z,97893.66
2022-10-25T05:52:26.833Z,97901.38
2022-10-25T05:55:28.367Z,97913.13
2022-10-25T05:58:30.137Z,97903.72
2022-10-25T06:01:31.800Z,97914.16
2022-10-25T06:04:33.432Z,97914.94
2022-10-25T06:07:34.982Z,97921.03
2022-10-25T06:10:36.609Z,97920.25
2022-10-25T06:13:38.401Z,97928.06
2022-10-25T06:16:39.983Z,97939.88
2022-10-25T06:19:41.560Z,97933.06
2022-10-25T06:22:43.811Z,97943.47
2022-10-25T06:25:45.513Z,97950.28
2022-10-25T06:28:47.169Z,97950.28
2022-10-25T06:31:49.608Z,97962.31
2022-10-25T06:34:51.162Z,97961.25
2022-10-25T06:37:52.784Z,97984.94
2022-10-25T06:41:00.764Z,97984.41
2022-10-25T06:44:06.534Z,97978.03
2022-10-25T06:47:23.922Z,97981.22
2022-10-25T06:50:25.539Z,97985.56
2022-10-25T06:53:27.565Z,97989.50
2022-10-25T06:56:29.245Z,97982.72
2022-10-25T06:59:30.902Z,97983.50
2022-10-25T07:02:32.592Z,97984.19
2022-10-25T07:05:34.243Z,97993.38
2022-10-25T07:08:36.363Z,97993.38
2022-10-25T07:11:38.123Z,97997.59
2022-10-25T07:14:39.734Z,97991.69
2022-10-25T07:17:41.314Z,97997.81
2022-10-25T07:20:48.396Z,98003.63
2022-10-25T07:23:50.399Z,98004.69
2022-10-25T07:26:51.953Z,98006.50
2022-10-25T07:29:53.635Z,98012.50
2022-10-25T07:32:55.195Z,98012.66
2022-10-25T07:36:09.763Z,98020.25
2022-10-25T07:39:12.391Z,98024.78
2022-10-25T07:42:13.938Z,98025.00
2022-10-25T07:45:18.696Z,98035.66
2022-10-25T07:48:23.937Z,98036.13
2022-10-25T07:51:25.530Z,98033.84
2022-10-25T07:54:27.098Z,98043.81
2022-10-25T07:57:28.666Z,98039.94
2022-10-25T08:00:30.254Z,98043.94
2022-10-25T08:03:32.113Z,98052.22
2022-10-25T08:06:36.394Z,98053.84
2022-10-25T08:09:38.746Z,98069.13
2022-10-25T08:12:40.560Z,98064.94
2022-10-25T08:15:42.182Z,98069.00
2022-10-25T08:18:44.242Z,98081.97
2022-10-25T08:21:46.302Z,98085.94
2022-10-25T08:24:47.977Z,98082.44
2022-10-25T08:27:49.734Z,98080.59
2022-10-25T08:30:52.806Z,98083.56
2022-10-25T08:33:54.451Z,98084.66
2022-10-25T08:36:56.117Z,98086.72
2022-10-25T08:39:57.751Z,98072.44
2022-10-25T08:42:59.302Z,98087.09
2022-10-25T08:46:02.305Z,98090.59
2022-10-25T08:49:24.148Z,98093.13
2022-10-25T08:52:30.664Z,98085.63
2022-10-25T08:55:33.120Z,98090.03
2022-10-25T08:58:38.473Z,98088.16
2022-10-25T09:01:53.687Z,98080.00
2022-10-25T09:04:55.332Z,98087.19
2022-10-25T09:08:06.026Z,98096.16
2022-10-25T09:11:10.682Z,98103.44
2022-10-25T09:14:15.174Z,98103.47
2022-10-25T09:17:19.778Z,98099.88
2022-10-25T09:20:23.632Z,98112.13
2022-10-25T09:23:29.706Z,98106.78
2022-10-25T09:26:31.365Z,98108.50
2022-10-25T09:29:37.809Z,98110.69
2022-10-25T09:32:40.561Z,98123.13
2022-10-25T09:35:52.055Z,98109.16
2022-10-25T09:38:54.723Z,98123.59
2022-10-25T09:41:56.320Z,98137.63
2022-10-25T09:44:59.873Z,98141.72
2022-10-25T09:48:06.008Z,98144.09
2022-10-25T09:51:25.091Z,98144.25
2022-10-25T09:54:38.544Z,98155.47
2022-10-25T09:57:40.239Z,98150.78
2022-10-25T10:00:41.905Z,98150.69
2022-10-25T10:03:44.667Z,98154.47
2022-10-25T10:06:50.765Z,98149.75
2022-10-25T10:09:52.506Z,98156.38
2022-10-25T10:13:12.404Z,98163.25
2022-10-25T10:16:16.829Z,98164.50
2022-10-25T10:19:19.422Z,98156.50
2022-10-25T10:22:21.018Z,98175.09
2022-10-25T10:25:24.390Z,98170.66
2022-10-25T10:28:26.006Z,98178.22
2022-10-25T10:31:33.345Z,98187.19
2022-10-25T10:34:44.481Z,98180.91
2022-10-25T10:37:46.300Z,98190.06
2022-10-25T10:40:50.806Z,98182.97
2022-10-25T10:44:06.698Z,98194.63
2022-10-25T10:47:12.239Z,98195.38
2022-10-25T10:50:23.113Z,98189.13
2022-10-25T10:53:33.023Z,98190.22
2022-10-25T10:56:34.560Z,98204.06
2022-10-25T10:59:51.850Z,98211.94
2022-10-25T11:05:56.572Z,98194.75
2022-10-25T11:09:24.939Z,98205.78
2022-10-25T11:12:26.470Z,98207.22
2022-10-25T11:15:30.012Z,98208.34
2022-10-25T11:18:47.174Z,98203.44
2022-10-25T11:22:07.564Z,98208.19
2022-10-25T11:25:18.350Z,98208.00
2022-10-25T11:28:38.815Z,98213.38
2022-10-25T11:31:54.423Z,98206.63
2022-10-25T11:35:02.297Z,98212.28
2022-10-25T11:38:04.041Z,98212.13
2022-10-25T11:41:16.219Z,98212.28
2022-10-25T11:44:17.750Z,98210.88
2022-10-25T11:47:19.323Z,98215.28
2022-10-25T11:50:50.357Z,98215.13
2022-10-25T11:54:03.207Z,98220.00
2022-10-25T11:57:13.088Z,98227.72
2022-10-25T12:00:15.482Z,98218.59
2022-10-25T12:03:17.479Z,98224.09
2022-10-25T12:06:45.695Z,98224.88
2022-10-25T12:10:05.658Z,98229.09
2022-10-25T12:13:21.190Z,98214.19
2022-10-25T12:16:22.748Z,98216.53
2022-10-25T12:19:25.178Z,98213.38
2022-10-25T12:22:43.343Z,98212.44
2022-10-25T12:25:47.209Z,98215.09
2022-10-25T12:28:49.472Z,98219.53
2022-10-25T12:31:54.381Z,98213.25
2022-10-25T12:34:55.966Z,98214.03
2022-10-25T12:38:17.570Z,98209.91
2022-10-25T12:41:20.869Z,98227.06
2022-10-25T12:44:31.637Z,98208.41
2022-10-25T12:47:33.185Z,98208.75
2022-10-25T12:50:38.967Z,98201.41
2022-10-25T12:53:49.090Z,98196.44
2022-10-25T12:56:54.641Z,98194.53
2022-10-25T13:00:02.406Z,98193.66
2022-10-25T13:03:22.730Z,98188.91
2022-10-25T13:06:47.245Z,98190.41
2022-10-25T13:09:48.853Z,98187.38
2022-10-25T13:13:01.028Z,98201.97
2022-10-25T13:16:03.063Z,98192.53
2022-10-25T13:19:25.740Z,98193.44
2022-10-25T13:22:39.415Z,98194.66
2022-10-25T13:25:47.229Z,98191.81
2022-10-25T13:28:49.784Z,98191.19
2022-10-25T13:31:59.046Z,98205.22
2022-10-25T13:35:02.332Z,98200.13
2022-10-25T13:38:07.344Z,98201.25
2022-10-25T13:41:18.741Z,98199.66
2022-10-25T13:44:21.113Z,98204.56
2022-10-25T13:47:41.905Z,98206.41
2022-10-25T13:50:43.870Z,98199.41
2022-10-25T13:53:46.114Z,98187.50
2022-10-25T13:56:51.908Z,98197.25
2022-10-25T13:59:53.476Z,98193.41
2022-10-25T14:03:10.282Z,98192.34
2022-10-25T14:06:17.521Z,98195.22
2022-10-25T14:09:19.963Z,98189.13
2022-10-25T14:12:21.495Z,98190.91
2022-10-25T14:15:30.372Z,98192.00
2022-10-25T14:18:33.768Z,98197.09
2022-10-25T14:21:35.305Z,98203.88
2022-10-25T14:24:36.864Z,98190.75
2022-10-25T14:27:38.401Z,98197.00
2022-10-25T14:30:41.904Z,98195.53
2022-10-25T14:33:49.770Z,98185.13
2022-10-25T14:36:55.044Z,98198.25
2022-10-25T14:39:56.622Z,98198.72
2022-10-25T14:43:17.058Z,98189.91
2022-10-25T14:46:19.773Z,98188.97
2022-10-25T14:49:21.905Z,98184.88
2022-10-25T14:52:23.547Z,98180.63
2022-10-25T14:55:32.994Z,98180.94
2022-10-25T14:58:41.628Z,98181.88
2022-10-25T15:01:51.868Z,98183.41
2022-10-25T15:04:54.127Z,98182.63
2022-10-25T15:07:56.634Z,98184.34
2022-10-25T15:10:58.744Z,98186.22
2022-10-25T15:14:00.249Z,98182.28
2022-10-25T15:17:03.576Z,98185.91
2022-10-25T15:20:05.506Z,98192.72
2022-10-25T15:23:14.959Z,98188.94
2022-10-25T15:26:28.521Z,98184.22
2022-10-25T15:29:30.146Z,98175.88
2022-10-25T15:32:31.887Z,98182.34
2022-10-25T15:35:33.712Z,98185.66
2022-10-25T15:39:06.794Z,98186.00
2022-10-25T15:41:57.523Z,98184.56
2022-10-25T15:44:59.066Z,98189.75
2022-10-25T15:48:00.690Z,98181.41
2022-10-25T15:51:02.203Z,98171.66
2022-10-25T15:54:03.799Z,98175.56
2022-10-25T15:57:05.361Z,98175.56
2022-10-25T16:00:07.210Z,98178.56
2022-10-25T16:03:20.447Z,98170.72
2022-10-25T16:06:22.158Z,98171.50
2022-10-25T16:09:23.930Z,98170.72
2022-10-25T16:12:31.231Z,98165.47
2022-10-25T16:15:32.842Z,98157.63
2022-10-25T16:18:34.541Z,98155.88
2022-10-25T16:21:36.337Z,98157.16
2022-10-25T16:24:38.069Z,98155.69
2022-10-25T16:27:40.037Z,98155.53
2022-10-25T16:30:43.893Z,98151.44
2022-10-25T16:33:45.606Z,98147.50
2022-10-25T16:36:47.529Z,98153.63
2022-10-25T16:39:49.101Z,98149.38
2022-10-25T16:42:51.091Z,98147.31
2022-10-25T16:45:52.858Z,98155.31
2022-10-25T16:48:55.978Z,98154.50
2022-10-25T16:51:59.809Z,98157.59
2022-10-25T16:55:01.393Z,98154.13
2022-10-25T16:58:02.980Z,98163.56
2022-10-25T17:01:05.540Z,98166.25
2022-10-25T17:04:07.193Z,98160.06
2022-10-25T17:07:08.767Z,98167.50
2022-10-25T17:10:11.385Z,98166.56
2022-10-25T17:13:15.769Z,98165.94
2022-10-25T17:16:17.340Z,98163.59
2022-10-25T17:19:18.864Z,98162.50
2022-10-25T17:22:21.912Z,98153.19
2022-10-25T17:25:23.477Z,98148.81
2022-10-25T17:28:25.114Z,98143.34
2022-10-25T17:31:28.367Z,98141.75
2022-10-25T17:34:32.098Z,98144.31
2022-10-25T17:37:33.974Z,98142.56
2022-10-25T17:40:37.481Z,98141.63
2022-10-25T17:43:39.789Z,98129.63
2022-10-25T17:46:41.382Z,98137.72
2022-10-25T17:49:43.110Z,98129.53
2022-10-25T17:52:44.644Z,98125.72
2022-10-25T17:55:46.184Z,98128.53
2022-10-25T17:58:48.666Z,98121.13
2022-10-25T18:01:50.392Z,98122.34
2022-10-25T18:05:18.961Z,98112.91
2022-10-25T18:08:13.718Z,98127.47
2022-10-25T18:11:19.332Z,98127.59
2022-10-25T18:14:21.004Z,98130.41
2022-10-25T18:17:22.660Z,98131.44
2022-10-25T18:20:25.398Z,98145.22
2022-10-25T18:23:27.137Z,98138.59
2022-10-25T18:26:29.175Z,98140.81
2022-10-25T18:29:32.674Z,98137.81
2022-10-25T18:32:36.240Z,98145.53
2022-10-25T18:35:38.007Z,98142.56
2022-10-25T18:38:39.853Z,98144.63
2022-10-25T18:41:42.486Z,98138.00
2022-10-25T18:44:44.758Z,98139.72
2022-10-25T18:47:50.363Z,98133.28
2022-10-25T18:50:52.190Z,98119.13
2022-10-25T18:53:54.294Z,98123.22
2022-10-25T18:56:55.892Z,98121.63
2022-10-25T18:59:57.385Z,98128.66
2022-10-25T19:02:59.016Z,98120.31
2022-10-25T19:06:00.576Z,98122.00
2022-10-25T19:09:03.092Z,98110.84
2022-10-25T19:12:04.859Z,98116.16
2022-10-25T19:15:06.764Z,98110.50
2022-10-25T19:18:08.397Z,98121.38
2022-10-25T19:21:10.900Z,98114.97
2022-10-25T19:24:15.832Z,98101.63
2022-10-25T19:27:17.417Z,98107.25
2022-10-25T19:30:18.933Z,98102.22
2022-10-25T19:33:20.664Z,98099.56
2022-10-25T19:36:22.234Z,98100.16
2022-10-25T19:39:23.924Z,98110.50
2022-10-25T19:42:25.437Z,98103.31
2022-10-25T19:45:27.019Z,98104.91
2022-10-25T19:48:28.843Z,98118.25
2022-10-25T19:51:30.457Z,98112.78
2022-10-25T19:54:31.992Z,98101.50
2022-10-25T19:57:33.736Z,98089.72
2022-10-25T20:00:35.380Z,98083.09
2022-10-25T20:03:37.340Z,98080.44
2022-10-25T20:06:39.021Z,98085.31
2022-10-25T20:09:41.298Z,98093.50
2022-10-25T20:12:43.808Z,98092.25
2022-10-25T20:15:51.292Z,98082.09
2022-10-25T20:18:52.866Z,98083.66
2022-10-25T20:21:54.479Z,98080.50
2022-10-25T20:24:56.114Z,98070.91
2022-10-25T20:28:02.323Z,98053.94
2022-10-25T20:31:03.867Z,98061.50
2022-10-25T20:34:05.562Z,98049.91
2022-10-25T20:37:08.731Z,98054.00
2022-10-25T20:40:10.436Z,98050.59
2022-10-25T20:43:11.989Z,98050.00
2022-10-25T20:46:13.756Z,98047.31
2022-10-25T20:49:15.370Z,98034.94
2022-10-25T20:52:17.209Z,98034.47
2022-10-25T20:55:19.241Z,98029.31
2022-10-25T20:58:21.989Z,98029.13
2022-10-25T21:01:23.673Z,98021.13
2022-10-25T21:04:30.649Z,98018.44
2022-10-25T21:07:43.594Z,98011.22
2022-10-25T21:10:45.148Z,98008.84
2022-10-25T21:13:46.659Z,98017.59
2022-10-25T21:16:50.173Z,98012.22
2022-10-25T21:19:51.713Z,98012.84
2022-10-25T21:22:53.258Z,98011.44
2022-10-25T21:26:05.419Z,98007.06
2022-10-25T21:29:07.043Z,98000.94
2022-10-25T21:32:08.643Z,97997.47
2022-10-25T21:35:10.167Z,97993.72
2022-10-25T21:38:11.714Z,97991.22
2022-10-25T21:41:17.459Z,97980.72
2022-10-25T21:44:19.207Z,97980.09
2022-10-25T21:47:20.772Z,97971.44
2022-10-25T21:50:22.284Z,97972.41
2022-10-25T21:53:23.887Z,97979.81
2022-10-25T21:56:31.234Z,97978.25
2022-10-25T21:59:33.283Z,97966.78
2022-10-25T22:02:35.009Z,97967.06
2022-10-25T22:05:41.994Z,97946.81
2022-10-25T22:08:43.575Z,97936.13
2022-10-25T22:11:45.161Z,97925.94
2022-10-25T22:14:46.693Z,97948.88
2022-10-25T22:17:48.242Z,97943.03
2022-10-25T22:20:56.491Z,97946.19
2022-10-25T22:23:58.033Z,97931.28
2022-10-25T22:26:59.563Z,97937.09
2022-10-25T22:30:01.103Z,97937.88
2022-10-25T22:33:02.638Z,97942.59
2022-10-25T22:36:08.904Z,97933.81
2022-10-25T22:39:10.542Z,97929.25
2022-10-25T22:42:13.741Z,97934.25
2022-10-25T22:45:15.339Z,97923.56
2022-10-25T22:48:16.974Z,97916.66
2022-10-25T22:51:18.684Z,97917.78
2022-10-25T22:54:20.231Z,97911.94
2022-10-25T22:57:21.813Z,97906.16
2022-10-25T23:00:23.390Z,97901.41
2022-10-25T23:03:24.924Z,97897.19
2022-10-25T23:06:27.380Z,97898.91
2022-10-25T23:09:28.924Z,97892.78
2022-10-25T23:12:30.415Z,97890.72
2022-10-25T23:15:31.944Z,97891.50
2022-10-25T23:18:33.510Z,97884.59
2022-10-25T23:21:35.042Z,97879.09
2022-10-25T23:24:36.545Z,97885.22
2022-10-25T23:27:38.088Z,97883.66
2022-10-25T23:30:40.027Z,97884.59
2022-10-25T23:33:44.688Z,97877.22
2022-10-25T23:36:47.385Z,97874.72
2022-10-25T23:39:48.936Z,97873.59
2022-10-25T23:42:50.491Z,97876.28
2022-10-25T23:45:52.097Z,97883.22
2022-10-25T23:48:53.609Z,97874.41
2022-10-25T23:51:55.128Z,97872.03
2022-10-25T23:54:56.650Z,97872.66
2022-10-25T23:57:58.509Z,97870.00
